createdAt,value
2017-10-13T00:00:23.502Z,8.23
2017-10-13T00:02:49.810Z,6.40
2017-10-13T00:05:16.098Z,13.10
2017-10-13T00:07:42.386Z,7.77
2017-10-13T00:10:09.425Z,10.13
2017-10-13T00:12:35.726Z,5.47
2017-10-13T00:15:02.018Z,10.00
2017-10-13T00:17:28.302Z,9.17
2017-10-13T00:19:54.588Z,7.03
2017-10-13T00:22:20.865Z,13.40
2017-10-13T00:24:47.151Z,8.57
2017-10-13T00:27:13.426Z,6.33
2017-10-13T00:29:40.460Z,8.70
2017-10-13T00:32:06.783Z,7.97
2017-10-13T00:34:33.074Z,9.53
2017-10-13T00:36:59.362Z,5.30
2017-10-13T00:39:25.652Z,8.13
2017-10-13T00:41:51.967Z,7.80
2017-10-13T00:44:18.300Z,7.67
2017-10-13T00:46:44.588Z,6.90
2017-10-13T00:49:11.626Z,8.40
2017-10-13T00:51:37.939Z,6.63
2017-10-13T00:54:04.228Z,5.73
2017-10-13T00:56:30.546Z,7.33
2017-10-13T00:58:56.863Z,7.70
2017-10-13T01:01:23.201Z,6.27
2017-10-13T01:03:49.515Z,11.17
2017-10-13T01:06:16.578Z,6.90
2017-10-13T01:08:43.606Z,8.40
2017-10-13T01:11:09.922Z,6.20
2017-10-13T01:13:37.007Z,5.13
2017-10-13T01:16:03.683Z,7.13
2017-10-13T01:18:30.008Z,6.93
2017-10-13T01:20:56.866Z,7.07
2017-10-13T01:23:23.177Z,8.20
2017-10-13T01:25:49.476Z,10.33
2017-10-13T01:28:15.803Z,8.47
2017-10-13T01:30:42.162Z,11.40
2017-10-13T01:33:08.485Z,6.00
2017-10-13T01:35:34.791Z,9.23
2017-10-13T01:38:01.131Z,6.90
2017-10-13T01:40:27.460Z,5.97
2017-10-13T01:42:53.779Z,5.90
2017-10-13T01:45:20.271Z,9.77
2017-10-13T01:47:46.712Z,7.50
2017-10-13T01:50:13.770Z,9.70
2017-10-13T01:52:40.868Z,10.47
2017-10-13T01:55:07.165Z,6.83
2017-10-13T01:57:33.481Z,6.73
2017-10-13T01:59:59.782Z,9.20
2017-10-13T02:02:26.099Z,8.20
2017-10-13T02:04:52.390Z,9.50
2017-10-13T02:07:19.438Z,7.13
2017-10-13T02:09:46.465Z,10.73
2017-10-13T02:12:13.524Z,6.77
2017-10-13T02:14:40.586Z,8.30
2017-10-13T02:17:06.912Z,9.90
2017-10-13T02:19:33.228Z,9.70
2017-10-13T02:22:00.279Z,11.57
2017-10-13T02:24:27.339Z,8.37
2017-10-13T02:26:53.734Z,6.57
2017-10-13T02:29:21.534Z,9.50
2017-10-13T02:31:48.565Z,9.63
2017-10-13T02:34:14.888Z,8.87
2017-10-13T02:36:42.026Z,11.40
2017-10-13T02:39:08.345Z,10.50
2017-10-13T02:41:34.670Z,8.07
2017-10-13T02:44:00.990Z,16.33
2017-10-13T02:46:28.189Z,7.83
2017-10-13T02:48:56.028Z,10.47
2017-10-13T02:51:22.331Z,7.83
2017-10-13T02:53:48.633Z,7.53
2017-10-13T02:56:15.699Z,9.63
2017-10-13T02:58:42.006Z,8.17
2017-10-13T03:01:09.030Z,9.97
2017-10-13T03:03:36.088Z,7.63
2017-10-13T03:06:03.139Z,6.83
2017-10-13T03:08:30.818Z,12.50
2017-10-13T03:10:57.139Z,7.17
2017-10-13T03:13:24.151Z,11.17
2017-10-13T03:15:51.933Z,5.40
2017-10-13T03:18:18.971Z,11.20
2017-10-13T03:20:45.286Z,10.60
2017-10-13T03:23:11.598Z,9.30
2017-10-13T03:25:37.907Z,8.10
2017-10-13T03:28:04.197Z,10.33
2017-10-13T03:30:31.258Z,7.93
2017-10-13T03:32:58.290Z,7.53
2017-10-13T03:35:25.330Z,11.37
2017-10-13T03:37:51.590Z,10.93
2017-10-13T03:40:18.619Z,11.37
2017-10-13T03:42:45.660Z,8.77
2017-10-13T03:45:12.706Z,6.57
2017-10-13T03:47:39.750Z,6.50
2017-10-13T03:50:06.070Z,10.30
2017-10-13T03:52:32.360Z,14.10
2017-10-13T03:54:58.659Z,7.30
2017-10-13T03:57:25.701Z,9.50
2017-10-13T03:59:52.041Z,8.00
2017-10-13T04:02:19.093Z,9.83
2017-10-13T04:04:45.385Z,10.93
2017-10-13T04:07:11.659Z,11.00
2017-10-13T04:09:37.920Z,12.10
2017-10-13T04:12:04.237Z,12.73
2017-10-13T04:14:30.514Z,10.30
2017-10-13T04:16:56.796Z,11.67
2017-10-13T04:19:23.066Z,16.57
2017-10-13T04:21:49.356Z,14.40
2017-10-13T04:24:15.633Z,10.67
2017-10-13T04:26:42.667Z,17.70
2017-10-13T04:29:08.927Z,12.10
2017-10-13T04:31:35.971Z,9.10
2017-10-13T04:34:02.282Z,12.70
2017-10-13T04:36:30.053Z,20.00
2017-10-13T04:38:57.080Z,9.00
2017-10-13T04:41:23.481Z,10.27
2017-10-13T04:43:50.652Z,7.10
2017-10-13T04:46:16.944Z,11.47
2017-10-13T04:48:43.241Z,11.50
2017-10-13T04:51:10.258Z,10.00
2017-10-13T04:53:36.546Z,8.03
2017-10-13T04:56:02.820Z,9.50
2017-10-13T04:58:29.126Z,9.80
2017-10-13T05:00:55.391Z,8.50
2017-10-13T05:03:21.848Z,10.40
2017-10-13T05:05:48.903Z,11.40
2017-10-13T05:08:15.951Z,10.37
2017-10-13T05:10:42.980Z,12.77
2017-10-13T05:13:10.018Z,7.20
2017-10-13T05:15:37.046Z,10.63
2017-10-13T05:18:03.364Z,10.07
2017-10-13T05:20:29.634Z,8.47
2017-10-13T05:22:56.674Z,9.50
2017-10-13T05:25:22.950Z,15.50
2017-10-13T05:27:49.241Z,9.40
2017-10-13T05:30:16.260Z,12.33
2017-10-13T05:32:42.572Z,10.50
2017-10-13T05:35:08.861Z,12.97
2017-10-13T05:37:35.910Z,14.50
2017-10-13T05:40:02.213Z,9.57
2017-10-13T05:42:29.274Z,10.17
2017-10-13T05:44:55.580Z,13.30
2017-10-13T05:47:21.875Z,13.30
2017-10-13T05:49:48.167Z,11.93
2017-10-13T05:52:15.195Z,9.77
2017-10-13T05:54:41.512Z,11.10
2017-10-13T05:57:07.805Z,12.33
2017-10-13T05:59:34.092Z,10.07
2017-10-13T06:02:00.460Z,10.07
2017-10-13T06:04:26.814Z,8.00
2017-10-13T06:06:53.187Z,11.03
2017-10-13T06:09:19.523Z,10.87
2017-10-13T06:11:45.924Z,8.10
2017-10-13T06:14:12.308Z,12.20
2017-10-13T06:16:38.619Z,11.07
2017-10-13T06:19:04.925Z,7.50
2017-10-13T06:21:31.264Z,13.10
2017-10-13T06:23:58.302Z,10.37
2017-10-13T06:26:24.631Z,9.43
2017-10-13T06:28:50.921Z,11.30
2017-10-13T06:31:17.250Z,9.83
2017-10-13T06:33:43.530Z,12.53
2017-10-13T06:36:09.824Z,9.63
2017-10-13T06:38:36.164Z,8.80
2017-10-13T06:41:02.461Z,10.73
2017-10-13T06:43:28.753Z,11.33
2017-10-13T06:45:55.829Z,10.80
2017-10-13T06:48:22.363Z,13.10
2017-10-13T06:50:48.709Z,12.50
2017-10-13T06:53:15.262Z,11.87
2017-10-13T06:55:41.602Z,8.67
2017-10-13T06:58:07.909Z,10.07
2017-10-13T07:00:34.273Z,9.60
2017-10-13T07:03:01.352Z,9.63
2017-10-13T07:05:27.668Z,14.33
2017-10-13T07:07:54.018Z,13.30
2017-10-13T07:10:20.325Z,11.40
2017-10-13T07:12:47.414Z,14.13
2017-10-13T07:15:13.749Z,10.43
2017-10-13T07:17:40.084Z,9.57
2017-10-13T07:20:06.398Z,12.77
2017-10-13T07:22:32.738Z,16.10
2017-10-13T07:24:59.054Z,13.17
2017-10-13T07:27:25.394Z,12.50
2017-10-13T07:29:51.742Z,16.13
2017-10-13T07:32:18.127Z,21.63
2017-10-13T07:34:44.486Z,14.23
2017-10-13T07:37:11.774Z,13.83
2017-10-13T07:39:38.082Z,14.37
2017-10-13T07:42:04.436Z,16.90
2017-10-13T07:44:31.660Z,17.20
2017-10-13T07:46:58.001Z,9.90
2017-10-13T07:49:24.288Z,11.87
2017-10-13T07:51:50.592Z,12.00
2017-10-13T07:54:16.886Z,10.80
2017-10-13T07:56:43.195Z,14.83
2017-10-13T07:59:09.530Z,13.40
2017-10-13T08:01:35.883Z,13.93
2017-10-13T08:04:02.216Z,13.57
2017-10-13T08:06:28.550Z,14.80
2017-10-13T08:08:54.862Z,15.23
2017-10-13T08:11:21.153Z,16.70
2017-10-13T08:13:48.196Z,13.23
2017-10-13T08:16:15.248Z,18.40
2017-10-13T08:18:41.582Z,14.07
2017-10-13T08:21:07.893Z,12.90
2017-10-13T08:23:34.218Z,15.47
2017-10-13T08:26:01.289Z,15.37
2017-10-13T08:28:27.619Z,18.17
2017-10-13T08:30:53.937Z,15.27
2017-10-13T08:33:21.023Z,15.27
2017-10-13T08:35:47.376Z,12.77
2017-10-13T08:38:13.684Z,19.53
2017-10-13T08:40:39.996Z,13.63
2017-10-13T08:43:06.347Z,14.77
2017-10-13T08:45:32.705Z,17.23
2017-10-13T08:47:59.012Z,17.87
2017-10-13T08:50:26.346Z,20.57
2017-10-13T08:52:52.639Z,17.90
2017-10-13T08:55:20.491Z,19.10
2017-10-13T08:57:46.914Z,21.23
2017-10-13T09:00:13.297Z,22.73
2017-10-13T09:02:39.642Z,17.27
2017-10-13T09:05:05.982Z,20.47
2017-10-13T09:09:58.596Z,16.83
2017-10-13T09:12:25.670Z,23.03
2017-10-13T09:14:52.049Z,14.77
2017-10-13T09:17:18.362Z,22.83
2017-10-13T09:19:44.708Z,15.07
2017-10-13T09:22:11.053Z,17.00
2017-10-13T09:24:37.390Z,20.17
2017-10-13T09:27:04.480Z,18.67
2017-10-13T09:29:30.827Z,22.70
2017-10-13T09:31:57.178Z,19.80
2017-10-13T09:34:23.531Z,14.47
2017-10-13T09:36:50.609Z,19.60
2017-10-13T09:39:16.957Z,17.07
2017-10-13T09:41:43.301Z,15.07
2017-10-13T09:44:09.649Z,12.60
2017-10-13T09:46:35.989Z,16.30
2017-10-13T09:49:02.322Z,18.20
2017-10-13T09:51:29.423Z,17.20
2017-10-13T09:53:55.789Z,14.93
2017-10-13T09:56:22.104Z,17.10
2017-10-13T09:58:55.399Z,18.00
2017-10-13T10:01:21.740Z,13.10
2017-10-13T10:03:48.086Z,19.30
2017-10-13T10:06:15.138Z,14.40
2017-10-13T10:08:42.234Z,15.57
2017-10-13T10:11:08.530Z,15.87
2017-10-13T10:13:35.602Z,18.30
2017-10-13T10:16:01.920Z,17.23
2017-10-13T10:18:29.133Z,14.03
2017-10-13T10:20:56.186Z,15.23
2017-10-13T10:23:22.548Z,16.47
2017-10-13T10:25:48.892Z,12.90
2017-10-13T10:28:16.125Z,15.90
2017-10-13T10:30:43.186Z,15.90
2017-10-13T10:33:09.547Z,18.20
2017-10-13T10:35:35.945Z,14.00
2017-10-13T10:38:02.279Z,14.47
2017-10-13T10:40:28.655Z,15.37
2017-10-13T10:42:55.273Z,20.80
2017-10-13T10:45:21.609Z,15.53
2017-10-13T10:47:47.955Z,13.93
2017-10-13T10:50:14.324Z,13.00
2017-10-13T10:52:41.647Z,13.77
2017-10-13T10:55:08.770Z,11.30
2017-10-13T10:57:35.991Z,13.80
2017-10-13T11:00:02.367Z,12.20
2017-10-13T11:02:28.695Z,12.40
2017-10-13T11:04:55.010Z,14.60
2017-10-13T11:07:21.364Z,16.80
2017-10-13T11:09:47.683Z,12.60
2017-10-13T11:12:14.906Z,18.67
2017-10-13T11:14:41.244Z,15.70
2017-10-13T11:17:07.582Z,16.57
2017-10-13T11:19:33.932Z,12.77
2017-10-13T11:22:00.292Z,14.40
2017-10-13T11:24:27.346Z,17.10
2017-10-13T11:26:54.437Z,15.87
2017-10-13T11:29:20.799Z,12.93
2017-10-13T11:31:47.141Z,17.97
2017-10-13T11:34:13.424Z,16.80
2017-10-13T11:36:39.728Z,16.47
2017-10-13T11:39:06.790Z,15.23
2017-10-13T11:41:33.098Z,14.13
2017-10-13T11:43:59.574Z,14.47
2017-10-13T11:46:25.902Z,13.60
2017-10-13T11:48:52.255Z,12.03
2017-10-13T11:51:18.633Z,15.77
2017-10-13T11:53:44.962Z,13.60
2017-10-13T11:56:11.324Z,13.50
2017-10-13T11:58:37.637Z,16.93
2017-10-13T12:01:03.963Z,13.27
2017-10-13T12:03:30.282Z,16.57
2017-10-13T12:05:56.621Z,11.93
2017-10-13T12:08:22.930Z,12.47
2017-10-13T12:10:49.990Z,11.83
2017-10-13T12:13:17.048Z,14.10
2017-10-13T12:15:43.370Z,19.77
2017-10-13T12:18:09.714Z,13.57
2017-10-13T12:20:36.054Z,13.30
2017-10-13T12:23:02.414Z,14.77
2017-10-13T12:25:28.755Z,11.27
2017-10-13T12:27:55.041Z,12.33
2017-10-13T12:30:21.407Z,13.63
2017-10-13T12:32:47.709Z,11.87
2017-10-13T12:35:14.018Z,13.33
2017-10-13T12:37:41.036Z,17.57
2017-10-13T12:40:08.849Z,14.00
2017-10-13T12:42:35.152Z,12.60
2017-10-13T12:45:02.231Z,9.87
2017-10-13T12:47:28.550Z,12.77
2017-10-13T12:49:55.080Z,14.60
2017-10-13T12:52:21.382Z,12.33
2017-10-13T12:54:48.475Z,14.63
2017-10-13T12:57:14.800Z,11.30
2017-10-13T12:59:41.094Z,15.30
2017-10-13T13:02:08.146Z,12.83
2017-10-13T13:04:35.200Z,10.73
2017-10-13T13:07:01.546Z,10.27
2017-10-13T13:09:27.892Z,11.20
2017-10-13T13:11:54.294Z,12.73
2017-10-13T13:14:21.322Z,14.10
2017-10-13T13:16:48.370Z,12.80
2017-10-13T13:19:14.703Z,12.00
2017-10-13T13:21:41.758Z,11.80
2017-10-13T13:24:08.990Z,15.37
2017-10-13T13:26:36.138Z,15.80
2017-10-13T13:29:03.947Z,12.33
2017-10-13T13:31:30.266Z,15.30
2017-10-13T13:33:57.310Z,12.27
2017-10-13T13:36:23.611Z,13.23
2017-10-13T13:38:51.370Z,7.40
2017-10-13T13:41:19.193Z,11.57
2017-10-13T13:43:45.518Z,11.00
2017-10-13T13:46:11.851Z,14.63
2017-10-13T13:48:38.144Z,12.57
2017-10-13T13:51:05.205Z,10.63
2017-10-13T13:53:32.250Z,9.90
2017-10-13T13:55:58.569Z,14.53
2017-10-13T13:58:24.910Z,9.10
2017-10-13T14:00:52.166Z,8.77
2017-10-13T14:03:19.275Z,15.60
2017-10-13T14:05:45.580Z,12.87
2017-10-13T14:08:11.915Z,11.57
2017-10-13T14:10:38.208Z,11.53
2017-10-13T14:13:04.534Z,13.23
2017-10-13T14:15:30.877Z,13.00
2017-10-13T14:17:57.218Z,12.30
2017-10-13T14:20:23.517Z,12.60
2017-10-13T14:22:50.599Z,11.97
2017-10-13T14:25:16.894Z,12.13
2017-10-13T14:27:43.917Z,13.67
2017-10-13T14:30:10.247Z,10.17
2017-10-13T14:32:36.574Z,10.37
2017-10-13T14:35:03.670Z,13.50
2017-10-13T14:37:29.982Z,10.70
2017-10-13T14:39:57.052Z,11.27
2017-10-13T14:42:23.332Z,13.17
2017-10-13T14:44:51.137Z,11.30
2017-10-13T14:47:17.468Z,11.47
2017-10-13T14:49:43.833Z,12.93
2017-10-13T14:52:10.117Z,10.23
2017-10-13T14:54:37.153Z,10.63
2017-10-13T14:57:03.482Z,14.70
2017-10-13T14:59:30.567Z,10.70
2017-10-13T15:01:56.890Z,12.60
2017-10-13T15:04:23.231Z,14.13
2017-10-13T15:06:49.543Z,10.23
2017-10-13T15:09:15.855Z,14.73
2017-10-13T15:11:42.931Z,12.03
2017-10-13T15:14:09.246Z,11.90
2017-10-13T15:16:35.580Z,12.70
2017-10-13T15:19:01.870Z,9.93
2017-10-13T15:21:28.188Z,9.57
2017-10-13T15:23:54.509Z,10.03
2017-10-13T15:26:27.024Z,13.17
2017-10-13T15:29:00.143Z,15.03
2017-10-13T15:31:32.625Z,10.77
2017-10-13T15:34:05.157Z,11.73
2017-10-13T15:36:32.233Z,13.00
2017-10-13T15:39:04.579Z,18.97
2017-10-13T15:41:37.822Z,14.43
2017-10-13T15:44:10.289Z,10.37
2017-10-13T15:46:42.882Z,13.17
2017-10-13T15:49:15.423Z,12.93
2017-10-13T15:51:47.968Z,13.70
2017-10-13T15:54:15.018Z,15.80
2017-10-13T15:56:42.082Z,17.23
2017-10-13T15:59:08.394Z,13.70
2017-10-13T16:01:35.478Z,13.10
2017-10-13T16:04:01.789Z,15.80
2017-10-13T16:06:28.102Z,16.90
2017-10-13T16:08:55.879Z,13.27
2017-10-13T16:11:22.220Z,13.10
2017-10-13T16:13:48.509Z,19.00
2017-10-13T16:16:14.835Z,15.50
2017-10-13T16:18:41.216Z,14.17
2017-10-13T16:21:07.518Z,15.93
2017-10-13T16:23:34.541Z,12.97
2017-10-13T16:26:00.816Z,16.47
2017-10-13T16:28:27.100Z,14.93
2017-10-13T16:30:53.378Z,15.23
2017-10-13T16:33:19.696Z,16.27
2017-10-13T16:35:46.714Z,14.67
2017-10-13T16:38:13.011Z,12.70
2017-10-13T16:40:39.297Z,12.57
2017-10-13T16:43:06.348Z,11.73
2017-10-13T16:45:33.370Z,17.10
2017-10-13T16:48:00.107Z,13.00
2017-10-13T16:50:26.409Z,11.27
2017-10-13T16:52:52.743Z,9.97
2017-10-13T16:55:19.020Z,14.93
2017-10-13T16:57:46.722Z,12.10
2017-10-13T17:00:12.994Z,13.90
2017-10-13T17:02:40.797Z,13.50
2017-10-13T17:05:07.089Z,12.53
2017-10-13T17:07:34.879Z,14.73
2017-10-13T17:10:01.205Z,13.30
2017-10-13T17:12:28.231Z,12.40
2017-10-13T17:14:56.260Z,16.87
2017-10-13T17:17:22.614Z,15.37
2017-10-13T17:19:48.917Z,17.27
2017-10-13T17:22:15.208Z,14.37
2017-10-13T17:24:42.247Z,16.07
2017-10-13T17:27:09.352Z,11.90
2017-10-13T17:29:37.238Z,17.67
2017-10-13T17:32:03.526Z,16.03
2017-10-13T17:34:29.850Z,20.10
2017-10-13T17:36:56.137Z,17.50
2017-10-13T17:39:22.454Z,21.40
2017-10-13T17:41:48.741Z,15.83
2017-10-13T17:44:15.151Z,12.93
2017-10-13T17:46:42.166Z,14.33
2017-10-13T17:49:08.458Z,11.87
2017-10-13T17:51:34.927Z,12.93
2017-10-13T17:54:01.947Z,15.50
2017-10-13T17:56:28.301Z,16.90
2017-10-13T17:58:54.587Z,12.23
2017-10-13T18:01:20.872Z,13.63
2017-10-13T18:03:47.148Z,13.70
2017-10-13T18:06:13.436Z,13.17
2017-10-13T18:08:41.206Z,15.90
2017-10-13T18:11:08.246Z,14.87
2017-10-13T18:13:34.518Z,10.33
2017-10-13T18:16:00.816Z,14.47
2017-10-13T18:18:27.834Z,17.00
2017-10-13T18:20:54.136Z,15.80
2017-10-13T18:23:20.429Z,13.53
2017-10-13T18:25:47.458Z,15.77
2017-10-13T18:28:14.500Z,11.63
2017-10-13T18:30:41.569Z,11.47
2017-10-13T18:33:08.858Z,12.07
2017-10-13T18:35:35.167Z,14.83
2017-10-13T18:38:02.185Z,14.77
2017-10-13T18:40:30.023Z,17.20
2017-10-13T18:42:56.321Z,18.43
2017-10-13T18:45:22.612Z,12.43
2017-10-13T18:47:49.653Z,14.33
2017-10-13T18:50:17.412Z,17.13
2017-10-13T18:52:43.703Z,15.37
2017-10-13T18:55:10.005Z,15.20
2017-10-13T18:57:37.865Z,14.80
2017-10-13T19:00:05.003Z,15.17
2017-10-13T19:02:32.079Z,14.97
2017-10-13T19:04:58.358Z,16.57
2017-10-13T19:07:24.652Z,16.10
2017-10-13T19:09:50.930Z,11.70
2017-10-13T19:12:17.971Z,11.13
2017-10-13T19:14:44.257Z,15.27
2017-10-13T19:17:10.553Z,11.70
2017-10-13T19:19:37.570Z,12.80
2017-10-13T19:22:03.893Z,13.20
2017-10-13T19:24:30.945Z,14.73
2017-10-13T19:26:57.224Z,18.73
2017-10-13T19:29:23.510Z,15.13
2017-10-13T19:31:49.833Z,17.60
2017-10-13T19:34:16.921Z,12.17
2017-10-13T19:36:43.199Z,14.07
2017-10-13T19:39:09.498Z,17.07
2017-10-13T19:41:35.843Z,12.57
2017-10-13T19:44:02.186Z,14.10
2017-10-13T19:46:28.905Z,15.30
2017-10-13T19:48:55.405Z,14.77
2017-10-13T19:51:23.029Z,17.20
2017-10-13T19:53:50.489Z,18.10
2017-10-13T19:56:16.880Z,18.37
2017-10-13T19:58:43.235Z,13.83
2017-10-13T20:01:10.456Z,15.03
2017-10-13T20:03:38.450Z,16.57
2017-10-13T20:06:04.770Z,17.03
2017-10-13T20:08:31.052Z,15.53
2017-10-13T20:10:58.245Z,15.60
2017-10-13T20:13:24.698Z,14.23
2017-10-13T20:15:51.077Z,12.20
2017-10-13T20:18:17.442Z,16.87
2017-10-13T20:20:43.899Z,10.77
2017-10-13T20:23:11.184Z,15.57
2017-10-13T20:25:38.249Z,14.23
2017-10-13T20:28:05.291Z,16.63
2017-10-13T20:30:32.373Z,14.00
2017-10-13T20:32:58.658Z,15.00
2017-10-13T20:35:25.779Z,14.53
2017-10-13T20:37:54.388Z,16.97
2017-10-13T20:40:21.751Z,17.80
2017-10-13T20:42:48.774Z,16.93
2017-10-13T20:45:15.517Z,14.23
2017-10-13T20:47:41.831Z,12.57
2017-10-13T20:50:16.057Z,17.93
2017-10-13T20:52:42.360Z,15.47
2017-10-13T20:55:08.675Z,14.80
2017-10-13T20:57:34.968Z,15.27
2017-10-13T21:00:02.728Z,19.77
2017-10-13T21:02:29.059Z,16.90
2017-10-13T21:04:56.086Z,16.00
2017-10-13T21:07:23.899Z,17.77
2017-10-13T21:09:50.233Z,15.23
2017-10-13T21:12:16.552Z,15.97
2017-10-13T21:14:43.647Z,20.20
2017-10-13T21:17:09.963Z,16.00
2017-10-13T21:19:36.264Z,16.13
2017-10-13T21:22:02.587Z,21.10
2017-10-13T21:24:29.615Z,16.80
2017-10-13T21:26:56.652Z,16.40
2017-10-13T21:29:25.417Z,22.13
2017-10-13T21:31:52.473Z,16.43
2017-10-13T21:34:18.770Z,13.87
2017-10-13T21:36:45.061Z,15.10
2017-10-13T21:39:12.096Z,16.40
2017-10-13T21:41:39.133Z,15.27
2017-10-13T21:44:06.182Z,15.83
2017-10-13T21:46:32.526Z,18.33
2017-10-13T21:48:58.837Z,17.37
2017-10-13T21:51:25.141Z,20.10
2017-10-13T21:53:51.458Z,17.87
2017-10-13T21:56:17.766Z,18.57
2017-10-13T21:58:44.068Z,20.30
2017-10-13T22:01:11.848Z,18.17
2017-10-13T22:03:38.174Z,18.50
2017-10-13T22:06:05.205Z,19.67
2017-10-13T22:08:32.253Z,22.50
2017-10-13T22:10:58.542Z,18.63
2017-10-13T22:13:24.825Z,19.63
2017-10-13T22:15:51.850Z,18.17
2017-10-13T22:18:18.117Z,16.33
2017-10-13T22:20:44.411Z,19.77
2017-10-13T22:23:10.689Z,18.33
2017-10-13T22:25:36.997Z,19.77
2017-10-13T22:28:03.298Z,22.50
2017-10-13T22:30:29.570Z,18.93
2017-10-13T22:32:56.606Z,21.50
2017-10-13T22:35:23.650Z,19.57
2017-10-13T22:37:49.941Z,17.20
2017-10-13T22:40:16.233Z,18.87
2017-10-13T22:42:42.518Z,20.87
2017-10-13T22:45:08.813Z,16.70
2017-10-13T22:47:35.112Z,19.03
2017-10-13T22:50:01.417Z,19.93
2017-10-13T22:52:28.471Z,22.20
2017-10-13T22:54:55.526Z,19.43
2017-10-13T22:57:21.863Z,18.53
2017-10-13T22:59:48.173Z,17.93
2017-10-13T23:02:15.263Z,19.20
2017-10-13T23:04:41.575Z,19.40
2017-10-13T23:07:07.878Z,18.80
2017-10-13T23:09:34.928Z,19.07
2017-10-13T23:12:02.004Z,18.93
2017-10-13T23:14:28.292Z,18.17
2017-10-13T23:16:56.083Z,19.23
2017-10-13T23:19:23.355Z,19.70
2017-10-13T23:21:49.675Z,20.33
2017-10-13T23:24:15.949Z,20.00
2017-10-13T23:26:42.237Z,18.20
2017-10-13T23:29:08.545Z,19.93
2017-10-13T23:31:36.487Z,18.87
2017-10-13T23:34:03.537Z,19.57
2017-10-13T23:36:29.802Z,19.30
2017-10-13T23:38:56.090Z,19.03
2017-10-13T23:41:22.383Z,19.77
2017-10-13T23:43:48.702Z,20.20
2017-10-13T23:46:14.994Z,20.43
2017-10-13T23:48:42.037Z,18.83
2017-10-13T23:51:09.060Z,20.80
2017-10-13T23:53:35.394Z,18.73
2017-10-13T23:56:01.671Z,19.43
2017-10-13T23:58:27.970Z,21.13
